createdAt,value
2023-03-20T00:02:26.470Z,57.40
2023-03-20T00:04:53.000Z,59.80
2023-03-20T00:07:21.702Z,59.00
2023-03-20T00:09:48.824Z,60.00
2023-03-20T00:12:21.796Z,59.90
2023-03-20T00:14:51.028Z,60.80
2023-03-20T00:17:20.525Z,57.60
2023-03-20T00:19:49.269Z,61.50
2023-03-20T00:22:18.366Z,60.70
2023-03-20T00:24:47.853Z,60.10
2023-03-20T00:27:19.002Z,59.40
2023-03-20T00:29:48.845Z,59.80
2023-03-20T00:32:15.782Z,59.00
2023-03-20T00:34:42.636Z,60.00
2023-03-20T00:37:12.857Z,60.30
2023-03-20T00:39:40.871Z,58.40
2023-03-20T00:42:18.101Z,58.70
2023-03-20T00:44:55.542Z,59.50
2023-03-20T00:47:24.780Z,59.90
2023-03-20T00:49:55.329Z,60.40
2023-03-20T00:52:23.073Z,59.00
2023-03-20T00:54:51.520Z,59.10
2023-03-20T00:57:23.537Z,60.90
2023-03-20T00:59:58.340Z,58.50
2023-03-20T01:02:28.180Z,60.40
2023-03-20T01:04:55.326Z,57.30
2023-03-20T01:07:24.345Z,60.70
2023-03-20T01:26:42.415Z,55.60
2023-03-20T01:29:21.031Z,58.80
2023-03-20T01:31:50.734Z,61.30
2023-03-20T01:34:22.041Z,63.10
2023-03-20T01:39:25.389Z,62.60
2023-03-20T01:41:56.593Z,61.70
2023-03-20T01:44:29.210Z,65.70
2023-03-20T01:47:01.881Z,65.00
2023-03-20T01:49:32.354Z,68.70
2023-03-20T01:52:06.537Z,70.00
2023-03-20T01:54:40.974Z,69.20
2023-03-20T01:57:16.575Z,71.60
2023-03-20T01:59:49.384Z,73.10
2023-03-20T02:02:22.866Z,70.60
2023-03-20T02:04:57.137Z,71.30
2023-03-20T02:07:25.850Z,72.50
2023-03-20T02:10:36.758Z,76.70
2023-03-20T02:14:11.760Z,79.60
2023-03-20T02:17:22.338Z,76.20
2023-03-20T02:20:57.104Z,70.50
2023-03-20T02:24:05.067Z,71.20
2023-03-20T02:26:54.546Z,71.00
2023-03-20T02:29:22.667Z,71.90
2023-03-20T02:32:28.722Z,78.50
2023-03-20T02:35:07.956Z,77.80
2023-03-20T02:37:48.436Z,79.90
2023-03-20T02:43:13.723Z,80.20
2023-03-20T02:48:33.794Z,80.60
2023-03-20T02:53:54.237Z,83.60
2023-03-20T02:56:41.563Z,91.60
2023-03-20T02:59:20.213Z,88.40
2023-03-20T03:01:55.713Z,88.10
2023-03-20T03:04:30.808Z,89.70
2023-03-20T03:07:04.065Z,89.20
2023-03-20T03:09:39.126Z,81.00
2023-03-20T03:12:20.753Z,75.60
2023-03-20T03:14:56.511Z,79.50
2023-03-20T03:17:29.637Z,85.30
2023-03-20T03:20:12.104Z,91.40
2023-03-20T03:22:44.728Z,87.80
2023-03-20T03:25:13.681Z,87.30
2023-03-20T03:27:46.134Z,85.10
2023-03-20T03:33:10.231Z,81.60
2023-03-20T03:35:39.088Z,80.90
2023-03-20T03:38:27.696Z,77.90
2023-03-20T03:41:31.733Z,81.30
2023-03-20T03:44:21.036Z,80.50
2023-03-20T03:47:03.688Z,76.40
2023-03-20T03:49:37.426Z,75.50
2023-03-20T03:52:21.295Z,78.30
2023-03-20T03:54:56.979Z,79.90
2023-03-20T04:35:39.281Z,75.00
2023-03-20T04:38:14.225Z,75.70
2023-03-20T04:40:43.995Z,74.50
2023-03-20T04:43:14.951Z,77.70
2023-03-20T04:45:43.514Z,75.50
2023-03-20T04:48:11.945Z,77.60
2023-03-20T04:50:40.381Z,73.20
2023-03-20T04:53:09.090Z,74.00
2023-03-20T04:55:37.764Z,75.70
2023-03-20T04:58:05.865Z,76.10
2023-03-20T05:00:34.584Z,74.70
2023-03-20T05:03:05.354Z,72.40
2023-03-20T05:05:34.461Z,73.40
2023-03-20T05:08:03.212Z,73.90
2023-03-20T05:10:34.924Z,74.90
2023-03-20T05:13:11.729Z,71.30
2023-03-20T05:16:01.243Z,71.70
2023-03-20T05:18:45.594Z,64.70
2023-03-20T05:21:32.235Z,55.80
2023-03-20T05:24:13.318Z,51.80
2023-03-20T05:27:02.363Z,50.00
2023-03-20T05:29:56.507Z,45.90
2023-03-20T05:32:57.252Z,39.60
2023-03-20T05:35:37.212Z,39.70
2023-03-20T05:38:46.636Z,34.90
2023-03-20T05:41:37.796Z,34.90
2023-03-20T05:44:31.777Z,34.20
2023-03-20T05:47:18.793Z,31.90
2023-03-20T05:49:59.816Z,34.10
2023-03-20T05:52:45.824Z,35.10
2023-03-20T05:55:22.129Z,34.50
2023-03-20T05:58:12.192Z,36.60
2023-03-20T06:00:59.258Z,38.10
2023-03-20T06:03:46.851Z,37.00
2023-03-20T06:06:17.824Z,38.00
2023-03-20T06:08:49.270Z,26.70
2023-03-20T06:11:21.283Z,38.20
2023-03-20T06:16:23.307Z,39.60
2023-03-20T06:18:52.049Z,40.20
2023-03-20T06:21:23.466Z,41.40
2023-03-20T06:23:52.116Z,40.70
2023-03-20T06:26:29.036Z,43.60
2023-03-20T06:29:05.141Z,43.70
2023-03-20T06:31:34.920Z,44.60
2023-03-20T06:34:05.062Z,46.80
2023-03-20T06:36:38.198Z,46.80
2023-03-20T06:39:14.259Z,45.90
2023-03-20T06:41:58.244Z,46.00
2023-03-20T06:45:03.817Z,45.10
2023-03-20T06:48:02.252Z,45.90
2023-03-20T06:50:32.680Z,45.90
2023-03-20T06:53:00.900Z,46.80
2023-03-20T06:55:38.531Z,48.30
2023-03-20T06:58:13.883Z,46.80
2023-03-20T07:03:13.611Z,44.00
2023-03-20T07:05:47.680Z,49.20
2023-03-20T07:08:15.913Z,49.90
2023-03-20T07:10:43.789Z,46.40
2023-03-20T07:13:14.420Z,48.80
2023-03-20T07:15:57.544Z,47.40
2023-03-20T07:18:33.166Z,46.90
2023-03-20T07:21:10.104Z,47.80
2023-03-20T07:23:39.234Z,47.10
2023-03-20T07:26:11.407Z,46.60
2023-03-20T07:28:42.239Z,45.00
2023-03-20T07:31:41.839Z,42.10
2023-03-20T07:34:20.585Z,42.70
2023-03-20T07:36:48.915Z,44.30
2023-03-20T07:39:22.589Z,40.00
2023-03-20T07:42:24.685Z,38.10
2023-03-20T07:45:24.340Z,38.20
2023-03-20T07:47:59.273Z,37.60
2023-03-20T07:50:49.858Z,38.10
2023-03-20T08:04:49.192Z,36.40
2023-03-20T08:07:17.958Z,36.90
2023-03-20T08:09:53.088Z,35.80
2023-03-20T08:12:21.665Z,35.50
2023-03-20T08:14:49.986Z,35.30
2023-03-20T08:17:22.351Z,35.10
2023-03-20T08:20:33.409Z,37.60
2023-03-20T08:23:05.108Z,36.20
2023-03-20T08:25:33.604Z,38.00
2023-03-20T08:28:02.058Z,37.30
2023-03-20T08:30:30.322Z,36.40
2023-03-20T08:33:00.906Z,37.00
2023-03-20T08:35:33.609Z,38.00
2023-03-20T08:38:02.318Z,37.40
2023-03-20T08:40:36.407Z,38.00
2023-03-20T08:43:05.706Z,39.60
2023-03-20T08:45:34.279Z,38.40
2023-03-20T08:48:05.171Z,39.20
2023-03-20T08:50:33.371Z,38.80
2023-03-20T08:53:01.472Z,38.90
2023-03-20T08:55:32.202Z,41.20
2023-03-20T08:58:02.668Z,41.10
2023-03-20T09:00:31.334Z,39.90
2023-03-20T09:03:04.439Z,40.30
2023-03-20T09:05:34.138Z,41.00
2023-03-20T09:08:07.701Z,38.20
2023-03-20T09:10:38.126Z,38.80
2023-03-20T09:13:25.328Z,39.70
2023-03-20T09:15:55.210Z,39.10
2023-03-20T09:18:24.044Z,38.60
2023-03-20T09:20:52.208Z,36.60
2023-03-20T09:23:20.373Z,35.80
2023-03-20T09:25:56.726Z,33.30
2023-03-20T09:28:24.932Z,32.80
2023-03-20T09:30:57.301Z,31.60
2023-03-20T09:33:30.366Z,33.60
2023-03-20T09:36:00.724Z,33.00
2023-03-20T09:38:28.995Z,32.80
2023-03-20T09:41:02.696Z,32.30
2023-03-20T09:44:08.546Z,32.60
2023-03-20T09:47:16.531Z,32.80
2023-03-20T09:50:09.599Z,33.80
2023-03-20T09:52:43.560Z,32.20
2023-03-20T09:55:21.852Z,30.90
2023-03-20T09:57:53.920Z,33.10
2023-03-20T10:00:26.623Z,30.70
2023-03-20T10:05:58.015Z,31.80
2023-03-20T10:08:30.414Z,33.60
2023-03-20T10:11:10.315Z,33.20
2023-03-20T10:13:38.384Z,32.30
2023-03-20T10:16:43.559Z,34.90
2023-03-20T10:19:18.785Z,38.60
2023-03-20T10:21:54.018Z,38.50
2023-03-20T10:24:39.269Z,40.50
2023-03-20T10:27:26.951Z,40.60
2023-03-20T10:30:24.187Z,40.00
2023-03-20T10:33:26.737Z,40.40
2023-03-20T10:36:08.332Z,42.10
2023-03-20T10:38:53.804Z,44.70
2023-03-20T10:41:28.853Z,42.90
2023-03-20T10:43:59.969Z,41.00
2023-03-20T10:46:44.306Z,40.70
2023-03-20T10:49:23.526Z,28.30
2023-03-20T10:51:54.909Z,38.30
2023-03-20T10:54:41.217Z,35.30
2023-03-20T10:57:23.733Z,36.30
2023-03-20T10:59:59.362Z,32.60
2023-03-20T11:02:34.742Z,25.60
2023-03-20T11:05:20.374Z,21.50
2023-03-20T11:07:52.890Z,21.10
2023-03-20T11:10:26.265Z,21.10
2023-03-20T11:12:56.485Z,25.40
2023-03-20T11:15:33.954Z,25.20
2023-03-20T11:18:07.877Z,25.80
2023-03-20T11:20:43.772Z,25.00
2023-03-20T11:23:17.958Z,25.80
2023-03-20T11:26:15.136Z,25.60
2023-03-20T11:28:59.817Z,24.60
2023-03-20T11:31:41.780Z,26.30
2023-03-20T11:34:15.509Z,25.60
2023-03-20T11:37:13.531Z,24.90
2023-03-20T11:39:58.360Z,26.20
2023-03-20T11:42:31.662Z,25.70
2023-03-20T11:45:16.139Z,24.90
2023-03-20T11:47:51.470Z,24.10
2023-03-20T11:50:36.354Z,25.30
2023-03-20T11:53:22.761Z,23.80
2023-03-20T11:56:13.822Z,23.40
2023-03-20T11:58:56.334Z,22.60
2023-03-20T12:01:31.209Z,25.50
2023-03-20T12:04:21.994Z,23.40
2023-03-20T12:07:01.891Z,24.00
2023-03-20T12:09:42.668Z,24.50
2023-03-20T12:12:24.579Z,25.40
2023-03-20T12:15:04.183Z,23.50
2023-03-20T12:36:40.566Z,29.80
2023-03-20T12:39:47.458Z,29.40
2023-03-20T12:42:46.054Z,28.00
2023-03-20T12:45:34.346Z,28.20
2023-03-20T12:48:40.809Z,27.00
2023-03-20T12:51:39.788Z,28.30
2023-03-20T12:54:33.085Z,26.20
2023-03-20T12:57:25.384Z,25.50
2023-03-20T13:00:21.825Z,24.50
2023-03-20T13:03:55.436Z,25.20
2023-03-20T13:06:43.020Z,25.00
2023-03-20T13:31:03.407Z,16.30
2023-03-20T13:34:18.302Z,15.00
2023-03-20T13:41:22.139Z,12.60
2023-03-20T13:43:59.235Z,13.00
2023-03-20T13:46:35.911Z,12.70
2023-03-20T13:49:22.075Z,13.30
2023-03-20T13:52:02.678Z,13.40
2023-03-20T13:55:10.953Z,13.50
2023-03-20T13:57:45.630Z,12.90
2023-03-20T14:00:40.822Z,13.40
2023-03-20T14:03:31.681Z,12.90
2023-03-20T14:06:14.733Z,14.00
2023-03-20T14:08:49.012Z,12.90
2023-03-20T14:11:21.487Z,13.80
2023-03-20T14:13:54.956Z,14.10
2023-03-20T14:16:22.130Z,13.40
2023-03-20T14:19:24.327Z,14.10
2023-03-20T14:21:56.791Z,12.20
2023-03-20T14:24:27.616Z,12.30
2023-03-20T14:27:00.866Z,12.10
2023-03-20T14:29:30.878Z,11.60
2023-03-20T14:32:05.977Z,12.10
2023-03-20T14:39:19.527Z,10.00
2023-03-20T14:42:15.280Z,10.90
2023-03-20T14:45:26.042Z,11.20
2023-03-20T14:48:15.801Z,11.40
2023-03-20T14:51:01.462Z,10.70
2023-03-20T14:53:32.751Z,11.90
2023-03-20T14:56:12.764Z,12.90
2023-03-20T14:58:39.583Z,13.20
2023-03-20T15:01:19.954Z,12.80
2023-03-20T15:04:30.580Z,14.10
2023-03-20T15:07:07.510Z,15.50
2023-03-20T15:09:39.587Z,14.60
2023-03-20T15:12:11.529Z,15.20
2023-03-20T15:15:02.994Z,14.60
2023-03-20T15:18:21.953Z,13.90
2023-03-20T15:20:51.755Z,10.70
2023-03-20T15:23:18.395Z,11.70
2023-03-20T15:25:47.506Z,9.70
2023-03-20T15:28:21.593Z,11.30
2023-03-20T15:30:57.981Z,11.10
2023-03-20T15:33:28.689Z,11.20
2023-03-20T15:35:55.827Z,10.80
2023-03-20T15:42:27.968Z,13.10
2023-03-20T15:48:35.351Z,14.60
2023-03-20T15:51:04.453Z,14.80
2023-03-20T15:53:44.961Z,13.80
2023-03-20T15:56:31.334Z,16.20
2023-03-20T15:58:58.535Z,15.30
2023-03-20T16:01:49.728Z,16.30
2023-03-20T16:04:20.859Z,15.80
2023-03-20T16:07:00.608Z,15.20
2023-03-20T16:09:30.326Z,16.20
2023-03-20T16:12:00.618Z,17.20
2023-03-20T16:14:34.335Z,16.50
2023-03-20T16:17:02.930Z,18.20
2023-03-20T16:19:30.054Z,16.10
2023-03-20T16:22:00.633Z,17.80
2023-03-20T16:24:36.147Z,18.40
2023-03-20T16:27:08.286Z,18.90
2023-03-20T16:29:43.202Z,19.60
2023-03-20T16:32:42.998Z,18.90
2023-03-20T16:35:25.464Z,20.00
2023-03-20T16:37:58.215Z,19.10
2023-03-20T16:43:18.279Z,20.60
2023-03-20T16:45:55.915Z,20.90
2023-03-20T17:04:14.923Z,25.70
2023-03-20T17:18:13.096Z,27.30
2023-03-20T17:20:41.346Z,28.20
2023-03-20T18:48:02.853Z,38.80
2023-03-20T18:50:52.435Z,45.50
2023-03-20T18:53:21.313Z,48.30
2023-03-20T19:00:26.956Z,44.60
2023-03-20T19:06:41.789Z,35.80
2023-03-20T19:18:05.606Z,36.60
2023-03-20T20:34:28.319Z,40.10
2023-03-20T20:37:30.531Z,39.10
2023-03-20T20:39:32.345Z,40.60
2023-03-20T20:42:03.084Z,36.30
2023-03-20T20:44:30.822Z,35.80
2023-03-20T21:05:37.925Z,28.90
2023-03-20T21:08:09.097Z,28.50
2023-03-20T21:10:37.318Z,27.90
2023-03-20T21:13:05.527Z,29.00
2023-03-20T21:15:33.778Z,28.40
2023-03-20T21:18:02.092Z,30.30
2023-03-20T21:20:31.131Z,27.70
2023-03-20T21:22:59.446Z,28.10
2023-03-20T21:25:39.535Z,29.40
2023-03-20T21:28:12.804Z,29.70
2023-03-20T21:30:54.431Z,29.00
2023-03-20T21:33:35.782Z,29.40
2023-03-20T21:36:04.330Z,27.10
2023-03-20T21:41:23.606Z,31.40
2023-03-20T21:43:51.530Z,30.20
2023-03-20T21:46:52.475Z,31.40
2023-03-20T21:55:25.082Z,30.90
2023-03-20T21:58:17.598Z,29.50
2023-03-20T22:03:38.646Z,28.00
2023-03-20T22:09:48.521Z,28.90
2023-03-20T22:12:47.963Z,28.00
2023-03-20T22:17:59.602Z,28.40
2023-03-20T22:29:32.644Z,34.40
2023-03-20T22:35:15.766Z,31.00
2023-03-20T22:38:24.047Z,25.30
2023-03-20T22:44:17.503Z,20.80
2023-03-20T22:46:22.743Z,20.90
2023-03-20T22:48:50.621Z,20.40
2023-03-20T22:51:22.652Z,22.00
2023-03-20T22:53:59.288Z,23.10
2023-03-20T22:56:27.245Z,24.40
